Time;durP1;ratioP1;P1;durP2;ratioP2;P2;SDS_P1;SDS_P2;PMS_P1;PMS_P2;Temp;Humidity;BMP_temperature;BMP_pressure;BME280_temperature;BME280_humidity;BME280_pressure;Samples;Min_cycle;Max_cycle;Signal;HPM_P1;HPM_P2
2021/07/10 00:01:42;;;;;;;9.50;6.95;;;17.30;99.90;;;;;;5031791;28;20034;-46
2021/07/10 00:04:07;;;;;;;7.00;6.30;;;17.30;99.90;;;;;;5031744;28;20021;-49
2021/07/10 00:06:33;;;;;;;9.40;7.90;;;17.30;99.90;;;;;;5031946;28;20052;-46
2021/07/10 00:08:58;;;;;;;10.55;7.63;;;17.30;99.90;;;;;;5031262;28;20455;-47
2021/07/10 00:11:24;;;;;;;7.93;7.32;;;17.30;99.90;;;;;;5031272;28;20044;-46
2021/07/10 00:13:49;;;;;;;10.77;9.00;;;17.30;99.90;;;;;;5031317;28;20437;-51
2021/07/10 00:16:15;;;;;;;11.45;9.90;;;17.30;99.90;;;;;;5031405;28;20063;-47
2021/07/10 00:18:41;;;;;;;11.35;10.02;;;17.40;99.90;;;;;;5031214;28;20025;-45
2021/07/10 00:21:06;;;;;;;9.55;8.65;;;17.30;99.90;;;;;;5031204;28;20022;-49
2021/07/10 00:23:32;;;;;;;13.88;10.23;;;17.20;99.90;;;;;;5031327;28;20105;-45
2021/07/10 00:25:58;;;;;;;9.05;8.15;;;17.10;99.90;;;;;;5031382;28;20540;-50
2021/07/10 00:28:23;;;;;;;7.90;7.10;;;17.10;99.90;;;;;;5031181;28;20076;-48
2021/07/10 00:30:49;;;;;;;8.60;7.50;;;17.00;99.90;;;;;;5030877;28;20076;-47
2021/07/10 00:33:14;;;;;;;8.10;7.32;;;17.00;99.90;;;;;;5031249;28;20270;-48
2021/07/10 00:35:40;;;;;;;7.65;6.78;;;17.00;99.90;;;;;;5031034;28;20029;-50
2021/07/10 00:38:05;;;;;;;9.95;7.05;;;17.00;99.90;;;;;;5031090;28;20025;-50
2021/07/10 00:40:31;;;;;;;9.15;6.97;;;17.00;99.90;;;;;;5030744;28;20048;-48
2021/07/10 00:42:56;;;;;;;7.30;6.68;;;17.00;99.90;;;;;;5031083;28;20025;-47
2021/07/10 00:45:22;;;;;;;9.63;8.57;;;17.00;99.90;;;;;;5030853;28;20394;-50
2021/07/10 00:47:47;;;;;;;8.88;8.00;;;17.10;99.90;;;;;;5030863;28;20095;-47
2021/07/10 00:50:17;;;;;;;9.52;8.07;;;17.10;99.90;;;;;;5030387;28;20030;-46
2021/07/10 00:52:43;;;;;;;9.68;8.45;;;17.10;99.90;;;;;;5030366;28;20104;-46
2021/07/10 00:55:09;;;;;;;9.48;8.50;;;17.10;99.90;;;;;;5030767;28;20431;-49
2021/07/10 00:57:36;;;;;;;9.77;8.82;;;17.00;99.90;;;;;;5030964;28;20406;-45
2021/07/10 01:00:11;;;;;;;8.90;8.00;;;16.90;99.90;;;;;;5030499;28;20504;-49
2021/07/10 01:02:40;;;;;;;11.13;8.55;;;16.80;99.90;;;;;;5030481;28;20375;-45
2021/07/10 01:05:08;;;;;;;9.38;8.48;;;16.70;99.90;;;;;;5030457;28;20029;-47
2021/07/10 01:07:33;;;;;;;8.70;7.80;;;16.70;99.90;;;;;;5030602;28;20542;-46
2021/07/10 01:09:59;;;;;;;14.75;9.95;;;16.60;99.90;;;;;;5030349;28;20113;-46
2021/07/10 01:12:26;;;;;;;10.30;9.23;;;16.50;99.90;;;;;;5030551;28;20069;-47
2021/07/10 01:14:52;;;;;;;15.05;10.25;;;16.50;99.90;;;;;;5031075;28;20037;-49
2021/07/10 01:17:17;;;;;;;11.88;9.85;;;16.50;99.90;;;;;;5030475;28;20032;-48
2021/07/10 01:19:43;;;;;;;11.07;9.13;;;16.40;99.90;;;;;;5030100;28;20069;-47
2021/07/10 01:22:09;;;;;;;10.13;8.70;;;16.30;99.90;;;;;;5030441;28;20029;-49
2021/07/10 01:24:35;;;;;;;12.98;9.00;;;16.40;99.90;;;;;;5047716;22;20033;-44
2021/07/10 01:27:00;;;;;;;14.05;8.75;;;16.30;99.90;;;;;;5050269;28;20029;-45
2021/07/10 01:29:27;;;;;;;10.00;8.68;;;16.30;99.90;;;;;;5049392;28;20436;-43
2021/07/10 01:31:57;;;;;;;13.18;8.00;;;16.30;99.90;;;;;;5050134;28;20021;-44
2021/07/10 01:34:22;;;;;;;10.10;8.38;;;16.30;99.90;;;;;;5049075;28;20104;-45
2021/07/10 01:36:48;;;;;;;8.73;7.93;;;16.20;99.90;;;;;;5050282;28;20124;-44
2021/07/10 01:39:14;;;;;;;10.48;8.05;;;16.30;99.90;;;;;;5049418;28;20375;-44
2021/07/10 01:41:45;;;;;;;10.45;7.85;;;16.30;99.90;;;;;;5050210;28;20029;-46
2021/07/10 01:44:11;;;;;;;10.10;8.43;;;16.30;99.90;;;;;;5050040;28;20048;-43
2021/07/10 01:46:37;;;;;;;11.48;8.45;;;16.40;99.90;;;;;;5050024;28;20098;-44
2021/07/10 01:49:03;;;;;;;12.32;8.30;;;16.40;99.90;;;;;;5049407;28;20025;-43
2021/07/10 01:51:28;;;;;;;7.75;7.05;;;16.40;99.90;;;;;;5050095;28;20530;-46
2021/07/10 01:53:54;;;;;;;9.23;7.75;;;16.40;99.90;;;;;;5050494;28;20017;-43
2021/07/10 01:56:19;;;;;;;10.35;7.88;;;16.40;99.90;;;;;;5050003;28;20036;-47
2021/07/10 01:58:45;;;;;;;10.30;7.43;;;16.40;99.90;;;;;;5049361;28;20100;-47
2021/07/10 02:01:10;;;;;;;13.20;7.05;;;16.40;99.90;;;;;;5050486;28;20021;-44
2021/07/10 02:03:36;;;;;;;10.82;8.55;;;16.30;99.90;;;;;;5050705;28;20025;-44
2021/07/10 02:06:03;;;;;;;10.38;7.43;;;16.30;99.90;;;;;;5054322;28;20398;-47
2021/07/10 02:08:28;;;;;;;8.48;7.57;;;16.30;99.90;;;;;;5054678;28;20504;-40
2021/07/10 02:10:54;;;;;;;10.35;8.32;;;16.30;99.90;;;;;;5053378;28;20025;-47
2021/07/10 02:13:19;;;;;;;12.48;9.68;;;16.30;99.90;;;;;;5053947;28;20037;-47
2021/07/10 02:15:45;;;;;;;10.57;8.77;;;16.40;99.90;;;;;;5053790;28;20020;-43
2021/07/10 02:18:10;;;;;;;11.68;9.98;;;16.50;99.90;;;;;;5053849;28;20398;-42
2021/07/10 02:20:38;;;;;;;20.83;10.63;;;16.50;99.90;;;;;;5053054;28;20033;-42
2021/07/10 02:23:04;;;;;;;12.48;9.23;;;16.50;99.90;;;;;;5053442;28;20024;-44
2021/07/10 02:25:31;;;;;;;11.05;9.07;;;16.40;99.90;;;;;;5053285;28;20041;-46
2021/07/10 02:27:57;;;;;;;12.98;9.68;;;16.30;99.90;;;;;;5053560;28;20029;-43
2021/07/10 02:30:26;;;;;;;17.58;10.40;;;16.30;99.90;;;;;;5052816;28;20102;-43
2021/07/10 02:32:53;;;;;;;13.30;9.52;;;16.30;99.90;;;;;;5053338;28;20134;-45
2021/07/10 02:35:19;;;;;;;20.30;11.05;;;16.20;99.90;;;;;;5053114;28;20013;-43
2021/07/10 02:37:47;;;;;;;10.32;9.27;;;16.20;99.90;;;;;;5053725;28;20142;-44
2021/07/10 02:40:14;;;;;;;13.45;9.98;;;16.10;99.90;;;;;;5052375;28;20486;-43
2021/07/10 02:42:40;;;;;;;11.57;9.05;;;16.00;99.90;;;;;;5053189;28;20083;-43
2021/07/10 02:45:09;;;;;;;18.88;10.50;;;16.10;99.90;;;;;;5052951;28;20025;-45
2021/07/10 02:47:35;;;;;;;17.55;10.15;;;16.20;99.90;;;;;;5052821;28;20056;-45
2021/07/10 02:50:01;;;;;;;16.90;10.32;;;16.20;99.90;;;;;;5052024;28;20021;-46
2021/07/10 02:52:26;;;;;;;15.93;10.25;;;16.20;99.90;;;;;;5052825;28;20059;-46
2021/07/10 02:54:52;;;;;;;16.88;10.60;;;16.10;99.90;;;;;;5052757;28;20181;-43
2021/07/10 02:57:18;;;;;;;14.13;11.55;;;16.00;99.90;;;;;;5052671;28;20036;-46
2021/07/10 02:59:44;;;;;;;11.68;10.30;;;15.90;99.90;;;;;;5052071;28;20509;-45
2021/07/10 03:02:11;;;;;;;19.45;10.98;;;15.90;99.90;;;;;;5051682;28;20029;-44
2021/07/10 03:04:37;;;;;;;22.73;11.18;;;15.80;99.90;;;;;;5052549;28;20021;-47
2021/07/10 03:07:03;;;;;;;12.52;10.60;;;15.80;99.90;;;;;;5052523;28;20029;-45
2021/07/10 03:09:29;;;;;;;22.60;11.70;;;15.80;99.90;;;;;;5051696;28;20100;-47
2021/07/10 03:11:54;;;;;;;21.33;10.43;;;15.80;99.90;;;;;;5052290;28;20108;-45
2021/07/10 03:14:20;;;;;;;13.07;10.10;;;15.80;99.90;;;;;;5034541;28;20390;-43
2021/07/10 03:16:45;;;;;;;11.57;9.65;;;15.80;99.90;;;;;;5051581;28;20036;-43
2021/07/10 03:19:11;;;;;;;15.55;10.30;;;15.70;99.90;;;;;;5033625;28;20021;-44
2021/07/10 03:21:37;;;;;;;9.85;8.85;;;15.60;99.90;;;;;;5052223;28;20067;-45
2021/07/10 03:24:03;;;;;;;13.73;9.05;;;15.50;99.90;;;;;;5052165;28;20078;-43
2021/07/10 03:26:28;;;;;;;11.77;8.80;;;15.60;99.90;;;;;;5051851;28;20063;-42
2021/07/10 03:28:54;;;;;;;15.82;9.30;;;15.50;99.90;;;;;;5051694;28;20617;-43
2021/07/10 03:31:19;;;;;;;17.35;9.02;;;15.50;99.90;;;;;;5052016;28;20112;-43
2021/07/10 03:33:45;;;;;;;10.88;8.27;;;15.50;99.90;;;;;;5052099;28;20029;-42
2021/07/10 03:36:11;;;;;;;17.58;9.10;;;15.40;99.90;;;;;;5051993;28;20118;-44
2021/07/10 03:38:39;;;;;;;13.93;9.65;;;15.40;99.90;;;;;;5033611;28;20502;-43
2021/07/10 03:41:05;;;;;;;13.77;8.55;;;15.50;99.90;;;;;;5051798;28;20029;-45
2021/07/10 03:43:31;;;;;;;15.07;9.27;;;15.50;99.90;;;;;;5051838;28;20441;-43
2021/07/10 03:45:56;;;;;;;12.80;9.80;;;15.40;99.90;;;;;;5051659;28;20064;-43
2021/07/10 03:48:22;;;;;;;15.23;10.48;;;15.60;99.90;;;;;;5052022;28;20017;-44
2021/07/10 03:50:48;;;;;;;19.30;11.23;;;15.60;99.90;;;;;;5051033;28;20505;-46
2021/07/10 03:53:13;;;;;;;11.70;9.52;;;15.50;99.90;;;;;;5033872;28;20033;-47
2021/07/10 03:55:40;;;;;;;11.07;9.57;;;15.40;99.90;;;;;;5051818;28;20054;-42
2021/07/10 03:58:06;;;;;;;18.67;10.27;;;15.50;99.90;;;;;;5051733;28;20114;-43
2021/07/10 04:00:32;;;;;;;14.88;10.75;;;15.60;99.90;;;;;;5050843;28;20057;-46
2021/07/10 04:02:57;;;;;;;14.20;10.30;;;15.60;99.90;;;;;;5050006;28;20067;-45
2021/07/10 04:05:23;;;;;;;16.17;9.55;;;15.60;99.90;;;;;;5051360;28;20116;-43
2021/07/10 04:07:49;;;;;;;10.77;9.77;;;15.50;99.90;;;;;;5051535;28;20023;-43
2021/07/10 04:10:16;;;;;;;16.73;9.48;;;15.40;99.90;;;;;;5050585;28;20021;-47
2021/07/10 04:12:42;;;;;;;13.23;9.57;;;15.30;99.90;;;;;;5050940;28;20062;-42
2021/07/10 04:15:09;;;;;;;12.27;9.10;;;15.40;99.90;;;;;;5051096;28;20028;-48
2021/07/10 04:17:35;;;;;;;13.68;9.07;;;15.40;99.90;;;;;;5051205;28;20501;-46
2021/07/10 04:20:01;;;;;;;10.98;7.65;;;15.40;99.90;;;;;;5050481;28;20029;-46
2021/07/10 04:22:27;;;;;;;10.10;7.60;;;15.50;99.90;;;;;;5051131;28;20493;-47
2021/07/10 04:24:53;;;;;;;13.45;7.35;;;15.60;99.90;;;;;;5051040;28;20103;-45
2021/07/10 04:27:18;;;;;;;7.55;6.63;;;15.60;99.90;;;;;;5050089;28;20056;-43
2021/07/10 04:29:45;;;;;;;11.82;8.50;;;15.60;99.90;;;;;;5050235;28;20025;-46
2021/07/10 04:32:15;;;;;;;18.52;8.77;;;15.70;99.90;;;;;;5050948;28;20525;-43
2021/07/10 04:34:41;;;;;;;8.38;7.50;;;15.70;99.90;;;;;;5051036;28;20116;-45
2021/07/10 04:37:06;;;;;;;13.25;8.10;;;15.70;99.90;;;;;;5050886;28;20057;-43
2021/07/10 04:39:32;;;;;;;9.20;8.13;;;15.60;99.90;;;;;;5050572;28;20355;-47
2021/07/10 04:41:58;;;;;;;9.57;7.72;;;15.60;99.90;;;;;;5050608;28;20043;-43
2021/07/10 04:44:24;;;;;;;11.55;8.77;;;15.70;99.90;;;;;;5050680;28;20025;-46
2021/07/10 04:46:49;;;;;;;11.82;9.02;;;15.80;99.90;;;;;;5050821;28;20110;-43
2021/07/10 04:49:15;;;;;;;12.43;9.80;;;15.90;99.90;;;;;;5050017;28;20048;-47
2021/07/10 04:51:41;;;;;;;15.02;10.38;;;15.90;99.90;;;;;;5051153;28;20061;-46
2021/07/10 04:54:06;;;;;;;12.05;9.75;;;16.00;99.90;;;;;;5050498;28;20057;-45
2021/07/10 04:56:32;;;;;;;12.07;10.18;;;16.10;99.90;;;;;;5050505;28;20035;-44
2021/07/10 04:58:57;;;;;;;21.88;11.63;;;16.10;99.90;;;;;;5048016;28;20412;-45
2021/07/10 05:01:23;;;;;;;12.02;10.52;;;16.00;99.90;;;;;;5050112;28;20028;-44
2021/07/10 05:03:49;;;;;;;14.10;11.10;;;16.10;99.90;;;;;;5042382;28;20052;-47
2021/07/10 05:06:14;;;;;;;19.65;10.55;;;16.10;99.90;;;;;;5012848;28;20044;-44
2021/07/10 05:08:40;;;;;;;16.42;11.40;;;16.00;99.90;;;;;;5044399;28;20110;-47
2021/07/10 05:11:05;;;;;;;13.40;11.70;;;16.00;99.90;;;;;;5050297;28;20033;-45
2021/07/10 05:13:31;;;;;;;17.00;11.82;;;16.00;99.90;;;;;;5048433;28;20066;-47
2021/07/10 05:15:56;;;;;;;19.23;12.48;;;16.10;99.90;;;;;;5049501;28;20470;-46
2021/07/10 05:18:22;;;;;;;20.50;11.95;;;16.20;99.90;;;;;;5047605;28;20432;-48
2021/07/10 05:20:48;;;;;;;16.80;12.32;;;16.20;99.90;;;;;;5050171;28;20028;-45
2021/07/10 05:23:14;;;;;;;24.70;12.50;;;16.20;99.90;;;;;;5032218;28;20025;-44
2021/07/10 05:25:39;;;;;;;19.77;12.82;;;16.20;99.90;;;;;;5037983;28;20136;-46
2021/07/10 05:28:05;;;;;;;16.15;11.90;;;16.20;99.90;;;;;;5030572;28;20026;-49
2021/07/10 05:30:31;;;;;;;21.25;13.15;;;16.30;99.90;;;;;;5029676;28;20023;-49
2021/07/10 05:32:56;;;;;;;24.67;13.73;;;16.50;99.90;;;;;;5030278;28;20032;-44
2021/07/10 05:35:23;;;;;;;27.13;16.70;;;16.70;99.90;;;;;;5030305;28;20036;-44
2021/07/10 05:37:49;;;;;;;22.42;14.68;;;16.90;99.90;;;;;;5041819;28;20025;-45
2021/07/10 05:40:16;;;;;;;25.65;14.45;;;17.10;99.90;;;;;;5052876;28;20029;-50
2021/07/10 05:42:41;;;;;;;24.30;14.65;;;17.20;99.90;;;;;;5053979;28;20060;-49
2021/07/10 05:45:08;;;;;;;19.27;13.27;;;17.20;99.90;;;;;;5054052;28;20101;-44
2021/07/10 05:47:35;;;;;;;21.02;12.77;;;17.30;99.90;;;;;;5053968;28;20036;-46
2021/07/10 05:50:01;;;;;;;14.80;11.18;;;17.40;99.90;;;;;;5053539;28;20400;-47
2021/07/10 05:52:26;;;;;;;13.75;10.93;;;17.50;99.90;;;;;;5054580;28;20096;-45
2021/07/10 05:54:52;;;;;;;11.27;9.43;;;17.50;99.90;;;;;;5055547;28;20068;-46
2021/07/10 05:57:17;;;;;;;11.32;10.18;;;17.50;99.90;;;;;;5054791;28;20071;-46
2021/07/10 05:59:43;;;;;;;14.23;11.15;;;17.70;99.90;;;;;;5054390;28;20024;-45
2021/07/10 06:02:08;;;;;;;17.20;11.70;;;17.70;99.90;;;;;;5055340;28;20029;-46
2021/07/10 06:04:35;;;;;;;26.33;11.40;;;17.80;99.90;;;;;;5053749;28;20078;-47
2021/07/10 06:07:01;;;;;;;16.55;10.55;;;17.90;99.90;;;;;;5053851;28;20143;-43
2021/07/10 06:09:26;;;;;;;16.98;10.98;;;18.00;99.90;;;;;;5051829;28;20533;-46
2021/07/10 06:11:52;;;;;;;12.48;10.93;;;18.10;99.90;;;;;;5053871;28;20070;-49
2021/07/10 06:14:18;;;;;;;10.98;9.32;;;18.30;99.90;;;;;;5053390;28;20036;-43
2021/07/10 06:16:43;;;;;;;12.63;9.85;;;18.40;99.90;;;;;;5053755;28;20100;-46
2021/07/10 06:19:09;;;;;;;12.32;9.95;;;18.50;99.90;;;;;;5052786;28;20029;-48
2021/07/10 06:21:34;;;;;;;16.25;9.98;;;18.60;99.90;;;;;;5051774;28;20029;-45
2021/07/10 06:24:00;;;;;;;13.55;9.85;;;18.70;99.90;;;;;;5033965;28;20037;-52
2021/07/10 06:26:25;;;;;;;10.25;9.25;;;18.90;99.90;;;;;;5051926;28;20029;-44
2021/07/10 06:28:51;;;;;;;17.00;10.40;;;19.00;99.90;;;;;;5052225;28;20036;-44
2021/07/10 06:31:18;;;;;;;12.90;10.88;;;19.00;99.90;;;;;;5052941;28;20078;-45
2021/07/10 06:33:44;;;;;;;14.95;11.70;;;19.00;99.90;;;;;;5053244;28;20021;-47
2021/07/10 06:36:10;;;;;;;20.10;12.95;;;19.20;99.90;;;;;;5054174;28;20025;-44
2021/07/10 06:38:35;;;;;;;13.13;10.98;;;19.20;99.90;;;;;;5051819;28;20024;-47
2021/07/10 06:41:01;;;;;;;15.02;12.15;;;19.30;99.90;;;;;;5053134;28;20032;-47
2021/07/10 06:43:26;;;;;;;15.63;11.15;;;19.50;99.90;;;;;;5053087;28;20037;-49
2021/07/10 06:45:52;;;;;;;12.00;10.73;;;19.50;99.90;;;;;;5052936;28;20033;-44
2021/07/10 06:48:17;;;;;;;16.63;10.48;;;19.60;99.90;;;;;;5035188;28;20037;-47
2021/07/10 06:50:43;;;;;;;14.75;10.98;;;19.60;99.90;;;;;;5051142;28;20036;-45
2021/07/10 06:53:09;;;;;;;21.02;12.68;;;19.60;99.90;;;;;;5053023;28;20212;-46
2021/07/10 06:55:34;;;;;;;17.75;11.98;;;19.70;99.90;;;;;;5052747;28;20048;-45
2021/07/10 06:58:00;;;;;;;18.60;13.60;;;19.70;99.90;;;;;;5052848;28;20029;-46
2021/07/10 07:00:25;;;;;;;22.23;14.13;;;19.80;99.90;;;;;;5052227;28;20021;-45
2021/07/10 07:02:51;;;;;;;20.02;13.70;;;19.80;99.90;;;;;;5052682;28;20501;-46
2021/07/10 07:05:16;;;;;;;20.20;15.48;;;19.90;99.90;;;;;;5052829;28;20206;-44
2021/07/10 07:07:42;;;;;;;22.83;13.68;;;20.00;99.90;;;;;;5051614;28;20096;-43
2021/07/10 07:10:10;;;;;;;27.60;15.43;;;20.10;99.90;;;;;;5051820;28;20425;-46
2021/07/10 07:12:36;;;;;;;19.25;14.25;;;20.20;99.90;;;;;;5052688;28;20045;-49
2021/07/10 07:15:03;;;;;;;21.13;14.38;;;20.10;99.90;;;;;;5052648;28;20071;-47
2021/07/10 07:17:28;;;;;;;17.23;13.40;;;20.20;99.90;;;;;;5052521;28;20497;-45
2021/07/10 07:19:54;;;;;;;15.80;12.93;;;20.30;99.90;;;;;;5052181;28;20119;-46
2021/07/10 07:22:19;;;;;;;21.88;13.98;;;20.20;99.90;;;;;;5053039;28;20043;-48
2021/07/10 07:27:18;;;;;;;15.77;11.98;;;20.20;99.90;;;;;;5030775;28;20053;-46
2021/07/10 07:29:44;;;;;;;17.05;12.52;;;20.10;99.90;;;;;;5013672;28;20112;-44
2021/07/10 07:32:09;;;;;;;21.35;13.02;;;20.10;99.90;;;;;;5014406;28;20028;-45
2021/07/10 07:34:35;;;;;;;18.77;13.00;;;20.10;99.90;;;;;;5032061;28;20025;-44
2021/07/10 07:37:01;;;;;;;17.50;11.15;;;20.30;99.90;;;;;;5032042;28;20512;-48
2021/07/10 07:39:26;;;;;;;19.48;13.70;;;20.30;99.90;;;;;;5031223;28;20509;-46
2021/07/10 07:41:52;;;;;;;21.10;13.85;;;20.40;99.90;;;;;;5031954;28;20022;-44
2021/07/10 07:44:17;;;;;;;17.75;11.65;;;20.60;99.90;;;;;;5031872;28;20301;-48
2021/07/10 07:46:43;;;;;;;14.77;11.25;;;20.50;99.90;;;;;;5031814;28;20072;-45
2021/07/10 07:49:08;;;;;;;17.80;12.35;;;20.50;99.90;;;;;;5031102;28;20040;-44
2021/07/10 07:51:34;;;;;;;17.02;11.70;;;20.60;99.90;;;;;;5031586;28;20033;-46
2021/07/10 07:54:00;;;;;;;20.98;12.52;;;21.00;99.90;;;;;;5030515;28;20030;-45
2021/07/10 07:56:25;;;;;;;18.90;11.05;;;21.50;99.90;;;;;;5031474;28;20053;-45
2021/07/10 07:58:51;;;;;;;11.40;8.82;;;22.20;99.90;;;;;;5030641;28;20108;-46
2021/07/10 08:01:17;;;;;;;13.57;9.93;;;22.90;99.90;;;;;;5013574;28;20048;-46
2021/07/10 08:03:42;;;;;;;12.15;9.70;;;23.70;99.90;;;;;;5030902;28;20034;-46
2021/07/10 08:06:09;;;;;;;15.32;10.80;;;24.50;99.40;;;;;;5031326;28;20418;-47
2021/07/10 08:08:39;;;;;;;14.00;10.27;;;25.40;97.70;;;;;;5030276;28;20022;-44
2021/07/10 08:11:05;;;;;;;11.68;10.10;;;26.30;96.10;;;;;;5028934;28;20071;-48
2021/07/10 08:13:32;;;;;;;10.50;9.18;;;26.90;95.10;;;;;;5029317;28;20390;-46
2021/07/10 08:15:58;;;;;;;14.27;10.00;;;27.00;94.00;;;;;;5030398;28;20041;-48
2021/07/10 08:18:23;;;;;;;9.90;8.23;;;26.90;94.70;;;;;;5013091;28;20383;-46
2021/07/10 08:20:49;;;;;;;14.38;10.43;;;26.90;93.80;;;;;;5030484;28;20033;-47
2021/07/10 08:23:15;;;;;;;13.45;10.73;;;26.90;93.50;;;;;;5030875;28;20025;-45
2021/07/10 08:25:42;;;;;;;12.70;9.75;;;26.60;93.50;;;;;;5030416;28;20475;-48
2021/07/10 08:28:07;;;;;;;11.43;9.77;;;26.30;94.20;;;;;;5031246;28;20076;-48
2021/07/10 08:30:33;;;;;;;12.02;10.27;;;26.10;94.30;;;;;;5029536;28;20301;-45
2021/07/10 08:32:58;;;;;;;13.13;10.38;;;26.20;94.30;;;;;;5030812;28;20056;-47
2021/07/10 08:35:24;;;;;;;10.43;9.02;;;26.20;94.30;;;;;;5030539;28;20033;-45
2021/07/10 08:37:50;;;;;;;13.60;8.77;;;26.30;93.80;;;;;;5031536;28;20513;-46
2021/07/10 08:40:17;;;;;;;13.00;7.30;;;26.30;93.90;;;;;;5040927;28;20545;-43
2021/07/10 08:42:43;;;;;;;7.97;6.97;;;26.30;92.90;;;;;;5030791;28;20021;-44
2021/07/10 08:45:11;;;;;;;9.57;8.02;;;26.30;93.20;;;;;;5045769;28;20077;-47
2021/07/10 08:47:41;;;;;;;10.38;7.95;;;26.50;92.80;;;;;;5044418;28;20022;-48
2021/07/10 08:50:12;;;;;;;8.88;7.38;;;26.50;92.80;;;;;;5012017;28;20065;-50
2021/07/10 08:52:38;;;;;;;10.60;7.82;;;26.80;93.00;;;;;;5030653;28;20017;-46
2021/07/10 08:55:06;;;;;;;8.23;7.05;;;26.90;91.80;;;;;;5030567;28;20037;-48
2021/07/10 08:57:36;;;;;;;8.02;6.15;;;26.90;92.40;;;;;;5029787;28;20445;-49
2021/07/10 09:00:33;;;;;;;7.40;6.32;;;27.00;91.70;;;;;;5011450;28;20025;-47
2021/07/10 09:02:59;;;;;;;8.95;6.70;;;27.10;92.10;;;;;;5030041;28;20030;-48
2021/07/10 09:05:26;;;;;;;7.47;6.10;;;27.00;92.00;;;;;;5029883;28;20088;-47
2021/07/10 09:08:11;;;;;;;8.63;7.30;;;27.10;91.60;;;;;;5030167;28;20108;-47
2021/07/10 09:10:38;;;;;;;8.88;6.13;;;27.20;91.70;;;;;;5028947;28;20494;-47
2021/07/10 09:13:04;;;;;;;7.63;5.32;;;27.30;90.80;;;;;;5029867;28;20187;-46
2021/07/10 09:15:32;;;;;;;5.55;4.85;;;27.20;89.10;;;;;;5027995;28;20026;-54
2021/07/10 09:17:58;;;;;;;8.10;5.07;;;27.20;89.10;;;;;;5029914;28;20033;-51
2021/07/10 09:20:26;;;;;;;5.32;4.82;;;27.30;89.10;;;;;;5029389;28;20084;-53
2021/07/10 09:22:52;;;;;;;7.97;5.32;;;27.50;88.00;;;;;;5010160;28;20053;-51
2021/07/10 09:25:30;;;;;;;5.40;4.90;;;27.60;86.60;;;;;;5030021;28;20026;-52
2021/07/10 09:27:58;;;;;;;6.60;5.68;;;27.50;88.30;;;;;;5029597;28;20022;-55
2021/07/10 09:30:33;;;;;;;5.78;5.28;;;27.40;88.50;;;;;;5029126;28;20049;-56
2021/07/10 09:33:19;;;;;;;5.93;4.45;;;27.40;88.30;;;;;;5020191;28;20498;-53
2021/07/10 09:35:56;;;;;;;6.88;4.28;;;27.70;89.80;;;;;;5033987;28;20033;-47
2021/07/10 09:38:31;;;;;;;6.05;5.45;;;27.80;86.20;;;;;;5023419;28;20025;-55
2021/07/10 09:41:10;;;;;;;5.15;4.70;;;27.20;85.20;;;;;;5010480;28;20083;-54
2021/07/10 09:43:38;;;;;;;5.20;4.10;;;27.10;86.10;;;;;;5027384;28;20367;-49
2021/07/10 09:46:06;;;;;;;6.55;4.97;;;27.00;88.90;;;;;;5033179;28;20109;-56
2021/07/10 09:48:37;;;;;;;5.15;4.65;;;27.00;88.10;;;;;;5032714;28;20066;-52
2021/07/10 09:51:17;;;;;;;5.68;4.95;;;26.90;88.70;;;;;;5032127;28;20033;-53
2021/07/10 09:53:56;;;;;;;7.05;6.15;;;26.70;87.50;;;;;;5029709;28;20021;-55
2021/07/10 09:56:21;;;;;;;8.25;5.10;;;26.40;87.00;;;;;;5032795;28;20021;-54
2021/07/10 09:58:47;;;;;;;5.05;4.60;;;26.20;87.00;;;;;;5011828;28;20033;-48
2021/07/10 10:01:32;;;;;;;6.93;4.78;;;26.10;88.40;;;;;;5030069;28;20034;-48
2021/07/10 10:03:59;;;;;;;;;;;26.10;87.80;;;;;;5027337;28;20482;-46
2021/07/10 10:06:34;;;;;;;13.25;10.25;;;26.00;88.50;;;;;;5029877;28;19909;-49
2021/07/10 10:09:03;;;;;;;6.50;5.90;;;26.00;88.90;;;;;;5011768;28;20021;-53
2021/07/10 10:11:49;;;;;;;20.05;12.70;;;26.00;90.40;;;;;;5030064;28;20022;-50
2021/07/10 10:14:15;;;;;;;6.43;5.45;;;25.90;90.40;;;;;;5028415;28;20078;-49
2021/07/10 10:16:46;;;;;;;5.90;5.38;;;25.80;89.80;;;;;;5012372;28;20049;-47
2021/07/10 10:19:13;;;;;;;5.65;5.03;;;25.50;89.90;;;;;;5010290;28;20029;-47
2021/07/10 10:21:39;;;;;;;5.78;5.13;;;25.30;88.10;;;;;;5029853;28;20116;-45
2021/07/10 10:24:05;;;;;;;5.70;5.20;;;25.30;89.30;;;;;;5011922;28;20140;-49
2021/07/10 10:26:30;;;;;;;4.40;4.05;;;25.40;90.10;;;;;;5015166;28;20036;-50
2021/07/10 10:28:57;;;;;;;5.75;4.82;;;25.50;87.70;;;;;;5032934;28;20044;-48
2021/07/10 10:31:23;;;;;;;4.60;4.15;;;25.50;88.40;;;;;;5033135;28;20380;-48
2021/07/10 10:33:50;;;;;;;5.03;4.50;;;25.60;88.60;;;;;;5033328;28;20032;-50
2021/07/10 10:36:22;;;;;;;4.00;3.70;;;25.60;89.10;;;;;;5033100;28;20025;-49
2021/07/10 10:38:47;;;;;;;4.63;4.22;;;25.60;90.00;;;;;;5032716;28;20017;-47
2021/07/10 10:41:13;;;;;;;5.30;4.78;;;25.80;90.50;;;;;;5033239;28;20040;-48
2021/07/10 10:43:40;;;;;;;7.65;6.13;;;25.90;90.40;;;;;;5033375;28;20033;-51
2021/07/10 10:46:16;;;;;;;10.40;5.88;;;25.90;90.50;;;;;;5032608;28;20029;-50
2021/07/10 10:48:43;;;;;;;7.80;6.57;;;25.60;90.60;;;;;;5015291;28;20095;-46
2021/07/10 10:51:31;;;;;;;8.27;5.57;;;25.60;90.60;;;;;;5033045;28;20032;-49
2021/07/10 10:54:18;;;;;;;9.48;6.75;;;25.60;90.70;;;;;;5033095;28;20028;-49
2021/07/10 10:56:45;;;;;;;5.55;5.00;;;25.50;90.60;;;;;;5032790;28;20021;-46
2021/07/10 10:59:41;;;;;;;7.75;4.40;;;25.50;90.80;;;;;;5032755;28;20028;-47
2021/07/10 11:02:26;;;;;;;;;;;25.50;91.80;;;;;;5016707;28;20113;-46
2021/07/10 11:04:58;;;;;;;6.20;3.90;;;25.60;89.90;;;;;;5018272;28;19909;-47
2021/07/10 11:07:33;;;;;;;3.92;3.25;;;25.60;89.40;;;;;;5032856;28;20104;-49
2021/07/10 11:10:17;;;;;;;5.95;4.10;;;25.60;89.70;;;;;;5032370;28;20030;-48
2021/07/10 11:12:51;;;;;;;3.90;3.57;;;25.60;88.70;;;;;;5032733;28;20031;-46
2021/07/10 11:15:25;;;;;;;4.90;4.35;;;25.60;89.70;;;;;;5031954;28;20026;-49
2021/07/10 11:17:55;;;;;;;8.98;3.80;;;25.60;88.50;;;;;;5032822;28;20398;-46
2021/07/10 11:20:47;;;;;;;3.80;3.50;;;25.70;87.90;;;;;;5032335;28;20036;-49
2021/07/10 11:23:33;;;;;;;6.07;3.60;;;25.70;86.60;;;;;;5032511;28;20026;-49
2021/07/10 11:26:04;;;;;;;3.75;3.45;;;25.70;85.60;;;;;;5031982;28;20037;-49
2021/07/10 11:28:48;;;;;;;5.57;4.53;;;25.70;86.70;;;;;;5032335;28;20053;-49
2021/07/10 11:31:17;;;;;;;8.03;6.57;;;25.60;85.90;;;;;;5031773;28;20029;-51
2021/07/10 11:33:59;;;;;;;4.90;3.75;;;25.60;86.80;;;;;;5031891;28;20113;-48
2021/07/10 11:36:31;;;;;;;3.95;3.65;;;25.60;86.90;;;;;;5031343;28;20025;-45
2021/07/10 11:39:00;;;;;;;5.50;3.83;;;25.50;87.90;;;;;;5031575;28;20049;-49
2021/07/10 11:41:33;;;;;;;4.75;3.72;;;25.30;87.50;;;;;;5031843;28;20032;-49
2021/07/10 11:44:13;;;;;;;6.18;3.78;;;25.20;87.80;;;;;;5031731;28;20037;-47
2021/07/10 11:46:59;;;;;;;3.70;3.35;;;25.10;89.60;;;;;;5013707;28;20029;-48
2021/07/10 11:49:40;;;;;;;3.45;3.15;;;25.10;92.00;;;;;;5013628;28;20064;-50
2021/07/10 11:52:08;;;;;;;3.78;3.47;;;25.10;88.40;;;;;;5031668;28;20455;-50
2021/07/10 11:54:37;;;;;;;3.90;3.60;;;25.10;88.70;;;;;;5031137;28;20056;-48
2021/07/10 11:57:05;;;;;;;4.82;3.55;;;25.00;88.30;;;;;;5013817;28;20064;-46
2021/07/10 11:59:35;;;;;;;4.70;3.75;;;24.90;88.80;;;;;;5013811;28;20026;-50
2021/07/10 12:02:21;;;;;;;4.18;3.60;;;25.00;88.00;;;;;;5031631;28;20025;-49
2021/07/10 12:05:19;;;;;;;4.57;3.67;;;25.00;89.10;;;;;;5031422;28;20104;-46
2021/07/10 12:07:50;;;;;;;6.55;3.65;;;25.10;90.50;;;;;;5031634;28;20028;-49
2021/07/10 12:10:17;;;;;;;4.78;3.45;;;25.20;89.10;;;;;;5031272;28;20445;-45
2021/07/10 12:13:09;;;;;;;4.13;3.80;;;25.30;90.30;;;;;;5031457;28;20490;-48
2021/07/10 12:15:38;;;;;;;3.13;2.92;;;25.30;91.20;;;;;;5002969;28;20040;-48
2021/07/10 12:18:06;;;;;;;3.35;3.15;;;25.40;88.50;;;;;;5031351;28;20044;-50
2021/07/10 12:20:38;;;;;;;3.78;3.30;;;25.40;88.90;;;;;;5031106;28;20029;-48
2021/07/10 12:23:10;;;;;;;3.65;3.25;;;25.40;88.40;;;;;;5031502;28;20026;-46
2021/07/10 12:25:51;;;;;;;3.50;3.20;;;25.50;90.00;;;;;;5030789;28;20553;-52
2021/07/10 12:28:28;;;;;;;3.58;3.05;;;25.60;87.70;;;;;;5031131;28;20108;-47
2021/07/10 12:30:56;;;;;;;2.97;2.78;;;25.60;88.20;;;;;;5013263;28;20025;-48
2021/07/10 12:33:38;;;;;;;4.25;3.53;;;25.60;86.50;;;;;;5013349;28;20079;-50
2021/07/10 12:36:10;;;;;;;5.72;2.90;;;25.50;85.70;;;;;;5031038;28;20032;-46
2021/07/10 12:38:47;;;;;;;4.05;2.88;;;25.50;85.40;;;;;;5030663;28;20026;-48
2021/07/10 12:41:20;;;;;;;5.47;3.40;;;25.50;84.70;;;;;;5031174;28;20028;-48
2021/07/10 12:43:46;;;;;;;3.80;3.10;;;25.50;85.40;;;;;;5031134;28;20025;-50
2021/07/10 12:46:12;;;;;;;7.60;3.10;;;25.60;85.30;;;;;;5030817;28;20493;-47